createdAt,value
2019-04-11T00:00:50.470Z,64.98
2019-04-11T00:01:52.682Z,62.91
2019-04-11T00:02:49.091Z,62.39
2019-04-11T00:03:49.416Z,62.29
2019-04-11T00:04:48.926Z,63.01
2019-04-11T00:05:48.914Z,62.39
2019-04-11T00:06:49.905Z,63.43
2019-04-11T00:07:48.897Z,62.39
2019-04-11T00:08:48.899Z,61.98
2019-04-11T00:09:49.310Z,63.12
2019-04-11T00:10:49.200Z,63.32
2019-04-11T00:11:48.857Z,64.04
2019-04-11T00:12:48.845Z,63.66
2019-04-11T00:13:49.501Z,64.77
2019-04-11T00:14:48.820Z,63.74
2019-04-11T00:15:48.867Z,63.76
2019-04-11T00:16:49.875Z,63.56
2019-04-11T00:17:48.797Z,64.80
2019-04-11T00:18:49.219Z,63.35
2019-04-11T00:19:48.791Z,63.87
2019-04-11T00:20:48.756Z,63.66
2019-04-11T00:21:48.947Z,64.80
2019-04-11T00:22:50.108Z,64.28
2019-04-11T00:23:48.728Z,64.39
2019-04-11T00:24:49.186Z,63.46
2019-04-11T00:25:49.574Z,64.70
2019-04-11T00:26:48.733Z,64.49
2019-04-11T00:27:48.934Z,64.31
2019-04-11T00:28:48.689Z,64.39
2019-04-11T00:29:48.680Z,64.59
2019-04-11T00:30:48.653Z,65.01
2019-04-11T00:31:49.546Z,64.80
2019-04-11T00:32:49.689Z,64.59
2019-04-11T00:33:48.758Z,65.53
2019-04-11T00:34:48.637Z,65.04
2019-04-11T00:35:48.605Z,64.07
2019-04-11T00:36:48.590Z,63.79
2019-04-11T00:37:49.522Z,64.42
2019-04-11T00:38:48.568Z,64.31
2019-04-11T00:39:48.561Z,64.31
2019-04-11T00:40:49.139Z,64.42
2019-04-11T00:41:48.537Z,64.94
2019-04-11T00:42:48.539Z,64.62
2019-04-11T00:43:48.517Z,64.94
2019-04-11T00:44:49.445Z,64.94
2019-04-11T00:45:48.759Z,64.83
2019-04-11T00:46:48.881Z,64.94
2019-04-11T00:47:49.053Z,64.52
2019-04-11T00:48:48.462Z,64.45
2019-04-11T00:49:48.523Z,64.21
2019-04-11T00:50:49.567Z,64.21
2019-04-11T00:51:48.430Z,64.52
2019-04-11T00:52:49.565Z,64.83
2019-04-11T00:53:48.406Z,65.14
2019-04-11T00:54:49.103Z,64.76
2019-04-11T00:55:48.427Z,65.04
2019-04-11T00:56:48.514Z,64.55
2019-04-11T00:57:49.443Z,64.65
2019-04-11T00:58:48.356Z,64.55
2019-04-11T00:59:48.819Z,65.17
2019-04-11T01:00:48.351Z,65.28
2019-04-11T01:01:49.934Z,65.80
2019-04-11T01:02:49.517Z,65.38
2019-04-11T01:03:49.470Z,65.07
2019-04-11T01:04:48.776Z,65.17
2019-04-11T01:05:48.298Z,66.21
2019-04-11T01:06:48.270Z,66.41
2019-04-11T01:07:49.191Z,65.28
2019-04-11T01:08:48.258Z,66.00
2019-04-11T01:09:48.604Z,65.07
2019-04-11T01:10:48.245Z,65.17
2019-04-11T01:11:48.219Z,65.07
2019-04-11T01:12:49.777Z,64.58
2019-04-11T01:13:52.391Z,64.89
2019-04-11T01:14:49.182Z,65.62
2019-04-11T01:15:48.966Z,66.03
2019-04-11T01:16:48.588Z,66.35
2019-04-11T01:17:48.159Z,65.93
2019-04-11T01:18:48.139Z,65.20
2019-04-11T01:19:49.046Z,64.37
2019-04-11T01:20:48.120Z,64.89
2019-04-11T01:21:48.826Z,64.58
2019-04-11T01:22:48.713Z,64.58
2019-04-11T01:23:48.089Z,65.62
2019-04-11T01:24:48.178Z,65.31
2019-04-11T01:25:48.555Z,65.72
2019-04-11T01:26:48.084Z,65.41
2019-04-11T01:27:48.050Z,66.24
2019-04-11T01:28:48.880Z,66.86
2019-04-11T01:29:48.024Z,65.83
2019-04-11T01:30:55.595Z,67.07
2019-04-11T01:31:48.010Z,66.24
2019-04-11T01:32:48.663Z,66.24
2019-04-11T01:33:48.387Z,66.58
2019-04-11T01:34:48.757Z,67.27
2019-04-11T01:35:47.962Z,66.44
2019-04-11T01:36:48.035Z,66.47
2019-04-11T01:37:48.174Z,66.89
2019-04-11T01:38:48.430Z,67.20
2019-04-11T01:39:47.932Z,66.68
2019-04-11T01:40:47.910Z,66.17
2019-04-11T01:41:48.864Z,66.78
2019-04-11T01:42:47.899Z,66.47
2019-04-11T01:43:56.418Z,66.47
2019-04-11T01:44:49.297Z,66.47
2019-04-11T01:45:47.858Z,67.10
2019-04-11T01:46:48.576Z,67.30
2019-04-11T01:47:47.970Z,67.41
2019-04-11T01:48:47.962Z,67.61
2019-04-11T01:49:48.239Z,67.10
2019-04-11T01:50:47.805Z,66.68
2019-04-11T01:51:47.812Z,66.78
2019-04-11T01:52:48.750Z,67.30
2019-04-11T01:53:48.736Z,67.34
2019-04-11T01:54:47.981Z,67.55
2019-04-11T01:55:48.358Z,67.55
2019-04-11T01:56:47.761Z,67.55
2019-04-11T01:57:47.733Z,67.24
2019-04-11T01:58:48.877Z,68.27
2019-04-11T01:59:47.943Z,68.07
2019-04-11T02:00:48.713Z,67.76
2019-04-11T02:01:47.733Z,67.96
2019-04-11T02:02:47.678Z,67.96
2019-04-11T02:03:47.671Z,68.69
2019-04-11T02:04:48.112Z,68.79
2019-04-11T02:05:47.646Z,68.38
2019-04-11T02:06:47.876Z,68.20
2019-04-11T02:07:47.653Z,68.93
2019-04-11T02:08:47.615Z,68.90
2019-04-11T02:09:48.449Z,68.82
2019-04-11T02:10:48.674Z,68.62
2019-04-11T02:11:47.744Z,68.62
2019-04-11T02:12:47.714Z,68.51
2019-04-11T02:13:48.171Z,68.30
2019-04-11T02:14:47.985Z,68.30
2019-04-11T02:15:48.384Z,69.13
2019-04-11T02:16:47.539Z,68.51
2019-04-11T02:17:48.724Z,68.62
2019-04-11T02:18:47.758Z,68.51
2019-04-11T02:19:48.077Z,68.30
2019-04-11T02:20:47.490Z,68.51
2019-04-11T02:21:47.486Z,68.93
2019-04-11T02:22:48.683Z,69.03
2019-04-11T02:23:47.666Z,68.41
2019-04-11T02:24:48.003Z,68.82
2019-04-11T02:25:47.454Z,69.45
2019-04-11T02:26:47.430Z,68.93
2019-04-11T02:27:48.390Z,68.30
2019-04-11T02:28:47.428Z,67.37
2019-04-11T02:29:47.402Z,67.40
2019-04-11T02:30:48.441Z,68.33
2019-04-11T02:31:47.375Z,67.79
2019-04-11T02:32:49.351Z,68.51
2019-04-11T02:33:48.809Z,67.47
2019-04-11T02:34:48.674Z,68.30
2019-04-11T02:35:49.211Z,68.62
2019-04-11T02:36:48.929Z,68.85
2019-04-11T02:37:49.584Z,69.37
2019-04-11T02:38:53.460Z,68.30
2019-04-11T02:39:49.389Z,68.75
2019-04-11T02:40:49.090Z,69.06
2019-04-11T02:41:47.531Z,68.44
2019-04-11T02:42:47.628Z,68.05
2019-04-11T02:43:48.913Z,67.54
2019-04-11T02:45:03.507Z,68.88
2019-04-11T02:45:58.077Z,69.27
2019-04-11T02:46:59.888Z,68.85
2019-04-11T02:47:50.779Z,69.27
2019-04-11T02:48:47.370Z,69.30
2019-04-11T02:49:47.728Z,68.78
2019-04-11T02:50:47.831Z,69.09
2019-04-11T02:51:49.053Z,69.51
2019-04-11T02:52:47.457Z,70.13
2019-04-11T02:53:47.393Z,69.71
2019-04-11T02:54:47.417Z,69.40
2019-04-11T02:55:47.439Z,69.61
2019-04-11T02:56:50.206Z,69.20
2019-04-11T02:57:48.296Z,68.88
2019-04-11T02:58:48.275Z,69.09
2019-04-11T02:59:48.918Z,69.20
2019-04-11T03:00:55.909Z,69.30
2019-04-11T03:01:48.608Z,69.71
2019-04-11T03:02:47.875Z,69.20
2019-04-11T03:03:47.437Z,68.88
2019-04-11T03:04:48.129Z,69.30
2019-04-11T03:05:47.120Z,68.78
2019-04-11T03:06:47.965Z,69.23
2019-04-11T03:07:47.736Z,69.23
2019-04-11T03:08:48.820Z,69.43
2019-04-11T03:09:48.827Z,68.78
2019-04-11T03:10:46.982Z,69.20
2019-04-11T03:11:47.824Z,68.88
2019-04-11T03:12:48.405Z,69.71
2019-04-11T03:13:48.531Z,68.91
2019-04-11T03:15:05.421Z,68.88
2019-04-11T03:16:02.185Z,68.81
2019-04-11T03:16:57.601Z,69.30
2019-04-11T03:17:49.403Z,69.09
2019-04-11T03:19:05.607Z,68.91
2019-04-11T03:20:02.767Z,69.20
2019-04-11T03:20:55.383Z,69.40
2019-04-11T03:21:47.866Z,69.40
2019-04-11T03:22:53.026Z,69.30
2019-04-11T03:23:49.326Z,68.71
2019-04-11T03:24:47.057Z,69.20
2019-04-11T03:25:46.988Z,69.30
2019-04-11T03:26:46.878Z,69.74
2019-04-11T03:27:47.528Z,69.40
2019-04-11T03:28:49.528Z,69.12
2019-04-11T03:29:49.357Z,69.33
2019-04-11T03:31:13.127Z,69.23
2019-04-11T03:32:33.457Z,69.43
2019-04-11T03:33:49.722Z,68.78
2019-04-11T03:34:39.839Z,69.02
2019-04-11T03:37:19.483Z,68.60
2019-04-11T03:38:17.474Z,69.23
2019-04-11T03:39:13.107Z,68.99
2019-04-11T03:40:07.996Z,68.91
2019-04-11T03:41:04.307Z,68.81
2019-04-11T03:42:05.853Z,68.91
2019-04-11T03:43:02.860Z,69.64
2019-04-11T03:43:58.204Z,70.37
2019-04-11T03:45:03.400Z,70.37
2019-04-11T03:46:04.051Z,70.37
2019-04-11T03:47:06.793Z,70.37
2019-04-11T03:48:02.450Z,70.27
2019-04-11T03:49:00.154Z,70.37
2019-04-11T03:49:53.233Z,70.06
2019-04-11T03:50:49.051Z,70.48
2019-04-11T03:51:47.991Z,69.96
2019-04-11T03:52:46.732Z,69.74
2019-04-11T03:53:47.250Z,70.06
2019-04-11T03:54:47.508Z,70.89
2019-04-11T03:55:47.451Z,70.27
2019-04-11T03:56:46.487Z,69.96
2019-04-11T03:57:46.980Z,70.27
2019-04-11T03:58:48.083Z,70.17
2019-04-11T03:59:47.846Z,70.89
2019-04-11T04:00:46.859Z,70.37
2019-04-11T04:01:48.226Z,70.58
2019-04-11T04:02:46.821Z,70.37
2019-04-11T04:03:46.755Z,70.27
2019-04-11T04:04:46.385Z,70.06
2019-04-11T04:05:46.374Z,69.23
2019-04-11T04:06:47.884Z,70.37
2019-04-11T04:07:46.631Z,70.06
2019-04-11T04:08:46.659Z,70.37
2019-04-11T04:09:46.347Z,70.09
2019-04-11T04:10:47.722Z,70.30
2019-04-11T04:11:46.917Z,70.92
2019-04-11T04:12:47.523Z,71.55
2019-04-11T04:13:47.742Z,71.86
2019-04-11T04:14:46.741Z,71.23
2019-04-11T04:16:01.798Z,70.92
2019-04-11T04:16:50.217Z,71.13
2019-04-11T04:17:47.678Z,70.92
2019-04-11T04:18:47.699Z,70.61
2019-04-11T04:19:47.345Z,71.27
2019-04-11T04:20:46.263Z,71.27
2019-04-11T04:21:47.047Z,71.17
2019-04-11T04:22:48.086Z,71.06
2019-04-11T04:23:46.204Z,70.64
2019-04-11T04:24:47.556Z,70.43
2019-04-11T04:25:47.326Z,70.95
2019-04-11T04:26:46.153Z,70.75
2019-04-11T04:27:46.831Z,70.85
2019-04-11T04:28:47.574Z,71.79
2019-04-11T04:29:49.601Z,74.29
2019-04-11T04:30:47.160Z,74.29
2019-04-11T04:31:46.671Z,73.03
2019-04-11T04:32:47.122Z,73.28
2019-04-11T04:33:47.672Z,73.18
2019-04-11T04:34:46.479Z,72.86
2019-04-11T04:35:47.508Z,73.07
2019-04-11T04:36:47.256Z,72.55
2019-04-11T04:37:47.467Z,72.45
2019-04-11T04:38:46.447Z,73.49
2019-04-11T04:39:47.836Z,73.07
2019-04-11T04:41:00.366Z,73.18
2019-04-11T04:41:55.401Z,72.97
2019-04-11T04:42:52.075Z,72.55
2019-04-11T04:43:48.280Z,72.55
2019-04-11T04:44:46.686Z,72.66
2019-04-11T04:46:05.130Z,72.55
2019-04-11T04:46:58.589Z,72.03
2019-04-11T04:47:54.258Z,71.92
2019-04-11T04:48:48.890Z,72.24
2019-04-11T04:49:46.536Z,72.24
2019-04-11T04:50:46.792Z,72.24
2019-04-11T04:51:47.650Z,72.45
2019-04-11T04:52:45.873Z,72.86
2019-04-11T04:53:45.863Z,73.69
2019-04-11T04:54:46.582Z,73.28
2019-04-11T04:55:47.703Z,72.97
2019-04-11T04:56:47.316Z,72.45
2019-04-11T04:57:45.821Z,72.76
2019-04-11T04:58:46.751Z,73.32
2019-04-11T04:59:46.935Z,74.11
2019-04-11T05:00:45.821Z,74.56
2019-04-11T05:01:48.063Z,74.25
2019-04-11T05:02:45.770Z,73.83
2019-04-11T05:03:46.784Z,73.21
2019-04-11T05:04:45.931Z,73.00
2019-04-11T05:05:46.565Z,74.04
2019-04-11T05:06:48.164Z,74.04
2019-04-11T05:07:46.839Z,74.15
2019-04-11T05:08:47.047Z,73.21
2019-04-11T05:09:46.059Z,72.89
2019-04-11T05:10:47.066Z,73.52
2019-04-11T05:11:46.667Z,73.10
2019-04-11T05:12:46.132Z,73.42
2019-04-11T05:13:49.260Z,73.63
2019-04-11T05:14:47.790Z,73.32
2019-04-11T05:15:45.655Z,73.63
2019-04-11T05:16:46.117Z,73.32
2019-04-11T05:17:46.147Z,73.21
2019-04-11T05:18:45.610Z,73.10
2019-04-11T05:19:46.576Z,73.42
2019-04-11T05:20:46.336Z,73.21
2019-04-11T05:21:45.698Z,73.21
2019-04-11T05:22:45.571Z,73.52
2019-04-11T05:23:45.982Z,73.63
2019-04-11T05:24:45.539Z,73.52
2019-04-11T05:25:46.395Z,74.04
2019-04-11T05:26:45.994Z,74.46
2019-04-11T05:27:45.524Z,74.77
2019-04-11T05:28:45.783Z,74.66
2019-04-11T05:29:45.887Z,74.66
2019-04-11T05:30:45.494Z,74.35
2019-04-11T05:31:45.470Z,75.29
2019-04-11T05:32:45.467Z,74.87
2019-04-11T05:33:45.679Z,74.56
2019-04-11T05:34:45.666Z,75.01
2019-04-11T05:35:45.453Z,75.81
2019-04-11T05:36:45.442Z,75.09
2019-04-11T05:37:45.418Z,75.09
2019-04-11T05:38:46.382Z,75.60
2019-04-11T05:39:45.382Z,75.81
2019-04-11T05:40:46.121Z,75.22
2019-04-11T05:41:48.060Z,76.02
2019-04-11T05:42:51.245Z,76.33
2019-04-11T05:43:47.379Z,76.54
2019-04-11T05:44:45.362Z,76.75
2019-04-11T05:45:45.771Z,76.43
2019-04-11T05:46:52.411Z,76.43
2019-04-11T05:47:50.907Z,76.23
2019-04-11T05:48:47.224Z,75.92
2019-04-11T05:49:46.542Z,76.09
2019-04-11T05:50:48.432Z,75.71
2019-04-11T05:51:47.604Z,76.12
2019-04-11T05:52:45.249Z,76.30
2019-04-11T05:53:46.072Z,76.33
2019-04-11T05:54:48.913Z,76.61
2019-04-11T05:55:46.874Z,76.40
2019-04-11T05:56:46.451Z,76.30
2019-04-11T05:57:46.913Z,76.92
2019-04-11T05:58:47.380Z,77.55
2019-04-11T05:59:48.759Z,77.96
2019-04-11T06:00:46.512Z,78.07
2019-04-11T06:01:45.155Z,77.65
2019-04-11T06:02:45.634Z,78.28
2019-04-11T06:03:45.839Z,77.13
2019-04-11T06:04:48.912Z,76.37
2019-04-11T06:05:45.139Z,79.21
2019-04-11T06:06:45.104Z,78.86
2019-04-11T06:07:47.643Z,78.14
2019-04-11T06:08:46.179Z,76.89
2019-04-11T06:09:46.161Z,76.26
2019-04-11T06:10:46.456Z,77.20
2019-04-11T06:11:45.306Z,77.72
2019-04-11T06:12:45.533Z,78.52
2019-04-11T06:13:45.031Z,78.41
2019-04-11T06:14:45.026Z,78.31
2019-04-11T06:15:45.034Z,77.69
2019-04-11T06:16:49.481Z,76.64
2019-04-11T06:17:46.214Z,76.61
2019-04-11T06:18:45.850Z,76.19
2019-04-11T06:19:45.847Z,76.19
2019-04-11T06:20:45.227Z,76.40
2019-04-11T06:21:44.953Z,75.54
2019-04-11T06:22:45.604Z,76.19
2019-04-11T06:23:45.668Z,75.64
2019-04-11T06:24:44.913Z,75.32
2019-04-11T06:25:46.786Z,75.22
2019-04-11T06:26:45.020Z,74.49
2019-04-11T06:27:45.553Z,75.22
2019-04-11T06:28:44.869Z,74.77
2019-04-11T06:29:45.187Z,74.01
2019-04-11T06:30:44.857Z,74.43
2019-04-11T06:31:45.403Z,73.80
2019-04-11T06:32:45.851Z,72.87
2019-04-11T06:33:44.905Z,72.87
2019-04-11T06:34:44.820Z,71.70
2019-04-11T06:35:44.793Z,71.91
2019-04-11T06:36:45.245Z,72.42
2019-04-11T06:37:45.683Z,72.08
2019-04-11T06:38:44.970Z,72.49
2019-04-11T06:39:45.323Z,72.70
2019-04-11T06:40:44.739Z,70.52
2019-04-11T06:41:44.739Z,69.56
2019-04-11T06:42:45.513Z,69.01
2019-04-11T06:43:44.730Z,67.45
2019-04-11T06:44:45.951Z,67.55
2019-04-11T06:45:44.692Z,68.56
2019-04-11T06:46:53.893Z,68.59
2019-04-11T06:47:45.666Z,68.35
2019-04-11T06:48:45.501Z,68.35
2019-04-11T06:49:44.688Z,68.35
2019-04-11T06:50:44.639Z,68.94
2019-04-11T06:51:44.622Z,69.56
2019-04-11T06:52:45.345Z,69.15
2019-04-11T06:53:44.629Z,66.63
2019-04-11T06:54:45.408Z,64.87
2019-04-11T06:55:44.774Z,64.56
2019-04-11T06:56:45.475Z,66.12
2019-04-11T06:57:45.820Z,65.57
2019-04-11T06:58:45.755Z,64.84
2019-04-11T06:59:44.907Z,65.16
2019-04-11T07:00:45.293Z,66.88
2019-04-11T07:01:45.426Z,67.22
2019-04-11T07:02:44.552Z,65.95
2019-04-11T07:03:44.987Z,65.23
2019-04-11T07:04:44.485Z,64.92
2019-04-11T07:05:44.475Z,65.23
2019-04-11T07:06:44.467Z,65.44
2019-04-11T07:07:45.125Z,66.64
2019-04-11T07:08:44.792Z,66.23
2019-04-11T07:09:45.007Z,64.30
2019-04-11T07:10:44.698Z,65.72
2019-04-11T07:11:44.827Z,64.68
2019-04-11T07:12:44.406Z,64.03
2019-04-11T07:13:45.473Z,63.62
2019-04-11T07:14:45.507Z,63.62
2019-04-11T07:15:44.365Z,64.14
2019-04-11T07:16:44.666Z,64.34
2019-04-11T07:17:44.355Z,64.65
2019-04-11T07:18:44.346Z,62.48
2019-04-11T07:19:44.479Z,61.35
2019-04-11T07:20:45.564Z,62.90
2019-04-11T07:21:44.318Z,64.42
2019-04-11T07:22:44.293Z,64.31
2019-04-11T07:23:44.736Z,63.18
2019-04-11T07:24:45.291Z,62.15
2019-04-11T07:25:45.154Z,63.39
2019-04-11T07:26:44.253Z,63.07
2019-04-11T07:27:45.079Z,63.25
2019-04-11T07:28:44.229Z,62.32
2019-04-11T07:29:44.322Z,62.84
2019-04-11T07:30:45.239Z,63.07
2019-04-11T07:31:44.351Z,62.32
2019-04-11T07:32:45.089Z,61.29
2019-04-11T07:33:45.071Z,61.80
2019-04-11T07:34:44.176Z,60.26
2019-04-11T07:35:45.155Z,62.12
2019-04-11T07:36:44.167Z,63.46
2019-04-11T07:37:44.719Z,60.05
2019-04-11T07:38:45.482Z,60.26
2019-04-11T07:39:45.014Z,59.02
2019-04-11T07:40:44.105Z,58.17
2019-04-11T07:41:45.610Z,59.20
2019-04-11T07:42:44.109Z,61.26
2019-04-11T07:43:44.072Z,60.23
2019-04-11T07:44:45.135Z,58.27
2019-04-11T07:45:44.055Z,59.92
2019-04-11T07:46:44.086Z,59.41
2019-04-11T07:47:44.041Z,58.65
2019-04-11T07:48:44.708Z,58.25
2019-04-11T07:49:44.984Z,57.73
2019-04-11T07:50:44.417Z,58.42
2019-04-11T07:51:45.036Z,61.61
2019-04-11T07:52:44.824Z,57.29
2019-04-11T07:53:43.967Z,56.36
2019-04-11T07:54:43.965Z,57.91
2019-04-11T07:55:44.459Z,57.50
2019-04-11T07:56:44.268Z,58.53
2019-04-11T07:57:44.731Z,57.91
2019-04-11T07:58:43.916Z,59.97
2019-04-11T07:59:43.904Z,56.65
2019-04-11T08:00:47.221Z,55.10
2019-04-11T08:01:44.881Z,54.69
2019-04-11T08:02:43.890Z,56.13
2019-04-11T08:03:44.645Z,58.50
2019-04-11T08:04:43.853Z,56.44
2019-04-11T08:05:44.630Z,55.62
2019-04-11T08:06:43.843Z,55.49
2019-04-11T08:07:44.832Z,54.97
2019-04-11T08:08:43.812Z,55.93
2019-04-11T08:09:43.914Z,56.00
2019-04-11T08:10:43.802Z,54.66
2019-04-11T08:11:44.261Z,54.53
2019-04-11T08:12:43.809Z,52.71
2019-04-11T08:13:44.822Z,54.64
2019-04-11T08:14:44.608Z,55.57
2019-04-11T08:15:43.942Z,54.43
2019-04-11T08:16:44.879Z,54.43
2019-04-11T08:17:44.478Z,54.10
2019-04-11T08:18:43.724Z,53.28
2019-04-11T08:19:43.835Z,53.89
2019-04-11T08:20:43.686Z,54.30
2019-04-11T08:21:44.083Z,52.84
2019-04-11T08:22:43.664Z,50.99
2019-04-11T08:23:45.707Z,51.50
2019-04-11T08:24:44.802Z,50.99
2019-04-11T08:25:43.631Z,50.66
2019-04-11T08:26:44.365Z,48.63
2019-04-11T08:27:56.018Z,48.52
2019-04-11T08:28:45.625Z,46.98
2019-04-11T08:29:44.360Z,50.24
2019-04-11T08:30:43.581Z,52.30
2019-04-11T08:31:44.528Z,50.35
2019-04-11T08:32:44.223Z,49.40
2019-04-11T08:33:43.559Z,50.22
2019-04-11T08:34:43.775Z,50.63
2019-04-11T08:35:44.101Z,47.14
2019-04-11T08:36:44.187Z,47.45
2019-04-11T08:37:43.507Z,48.47
2019-04-11T08:38:44.613Z,50.40
2019-04-11T08:39:43.503Z,50.92
2019-04-11T08:40:43.472Z,52.15
2019-04-11T08:41:44.066Z,52.44
2019-04-11T08:42:43.455Z,52.74
2019-04-11T08:43:43.449Z,50.69
2019-04-11T08:44:45.179Z,47.28
2019-04-11T08:45:44.448Z,44.10
2019-04-11T08:46:43.416Z,45.36
2019-04-11T08:47:47.583Z,48.92
2019-04-11T08:48:45.294Z,47.18
2019-04-11T08:49:43.380Z,51.69
2019-04-11T08:50:43.421Z,47.36
2019-04-11T08:51:43.357Z,45.74
2019-04-11T08:52:44.414Z,48.69
2019-04-11T08:53:43.335Z,49.21
2019-04-11T08:54:43.842Z,49.29
2019-04-11T08:55:50.116Z,50.10
2019-04-11T08:56:45.385Z,48.85
2019-04-11T08:57:44.384Z,43.73
2019-04-11T08:58:43.284Z,44.78
2019-04-11T08:59:43.991Z,48.24
2019-04-11T09:00:43.289Z,42.81
2019-04-11T09:01:44.301Z,46.70
2019-04-11T09:02:43.241Z,45.45
2019-04-11T09:03:44.084Z,47.91
2019-04-11T09:04:43.222Z,45.53
2019-04-11T09:05:43.208Z,46.25
2019-04-11T09:06:43.228Z,48.19
2019-04-11T09:07:43.535Z,43.88
2019-04-11T09:08:43.187Z,40.21
2019-04-11T09:09:43.258Z,48.27
2019-04-11T09:10:44.288Z,47.05
2019-04-11T09:11:43.205Z,42.63
2019-04-11T09:12:43.141Z,41.63
2019-04-11T09:13:43.998Z,45.41
2019-04-11T09:14:44.311Z,41.71
2019-04-11T09:15:43.288Z,45.49
2019-04-11T09:16:43.093Z,47.00
2019-04-11T09:17:55.208Z,44.14
2019-04-11T09:18:44.145Z,40.08
2019-04-11T09:19:43.120Z,43.02
2019-04-11T09:20:43.424Z,41.81
2019-04-11T09:21:43.051Z,44.35
2019-04-11T09:22:43.062Z,47.82
2019-04-11T09:23:43.973Z,45.26
2019-04-11T09:24:43.237Z,40.17
2019-04-11T09:25:43.504Z,40.48
2019-04-11T09:26:42.994Z,45.29
2019-04-11T09:27:42.995Z,43.85
2019-04-11T09:28:44.074Z,44.17
2019-04-11T09:29:43.024Z,43.57
2019-04-11T09:30:43.159Z,41.83
2019-04-11T09:31:43.897Z,45.82
2019-04-11T09:32:42.953Z,42.77
2019-04-11T09:33:42.918Z,41.95
2019-04-11T09:34:44.038Z,42.87
2019-04-11T09:35:43.666Z,43.38
2019-04-11T09:36:42.967Z,49.63
2019-04-11T09:37:44.249Z,47.97
2019-04-11T09:38:42.882Z,47.03
2019-04-11T09:39:43.510Z,44.78
2019-04-11T09:40:43.764Z,42.73
2019-04-11T09:41:42.835Z,42.00
2019-04-11T09:42:43.097Z,43.02
2019-04-11T09:43:42.827Z,41.49
2019-04-11T09:44:42.802Z,43.22
2019-04-11T09:45:43.920Z,43.73
2019-04-11T09:46:42.830Z,46.06
2019-04-11T09:47:42.764Z,45.73
2019-04-11T09:48:44.142Z,43.29
2019-04-11T09:49:42.948Z,43.06
2019-04-11T09:50:42.776Z,39.61
2019-04-11T09:51:42.731Z,37.36
2019-04-11T09:52:42.712Z,39.32
2019-04-11T09:53:43.039Z,41.67
2019-04-11T09:54:42.693Z,41.16
2019-04-11T09:55:43.705Z,46.06
2019-04-11T09:56:43.014Z,42.69
2019-04-11T09:57:42.659Z,43.18
2019-04-11T09:58:42.650Z,46.66
2019-04-11T09:59:42.665Z,46.53
2019-04-11T10:00:43.127Z,45.40
2019-04-11T10:01:42.976Z,45.28
2019-04-11T10:02:42.606Z,45.26
2019-04-11T10:03:43.001Z,44.73
2019-04-11T10:04:50.185Z,43.81
2019-04-11T10:05:42.669Z,43.51
2019-04-11T10:06:42.566Z,45.04
2019-04-11T10:07:42.560Z,39.84
2019-04-11T10:08:43.668Z,40.17
2019-04-11T10:09:42.541Z,42.02
2019-04-11T10:10:44.591Z,41.92
2019-04-11T10:11:42.514Z,42.53
2019-04-11T10:12:42.611Z,39.47
2019-04-11T10:13:42.815Z,39.78
2019-04-11T10:14:43.674Z,39.65
2019-04-11T10:15:43.190Z,39.65
2019-04-11T10:16:42.475Z,41.57
2019-04-11T10:17:42.683Z,42.29
2019-04-11T10:18:43.942Z,41.35
2019-04-11T10:19:42.445Z,39.01
2019-04-11T10:20:42.624Z,39.19
2019-04-11T10:21:43.594Z,40.41
2019-04-11T10:22:43.790Z,39.58
2019-04-11T10:23:43.034Z,40.09
2019-04-11T10:24:42.934Z,38.78
2019-04-11T10:25:43.374Z,37.16
2019-04-11T10:26:42.426Z,38.58
2019-04-11T10:27:42.353Z,37.48
2019-04-11T10:28:42.341Z,38.09
2019-04-11T10:29:42.364Z,36.19
2019-04-11T10:30:42.323Z,38.23
2019-04-11T10:31:42.343Z,46.28
2019-04-11T10:32:43.365Z,41.80
2019-04-11T10:33:42.283Z,39.62
2019-04-11T10:34:42.282Z,39.92
2019-04-11T10:35:42.774Z,37.40
2019-04-11T10:36:43.226Z,37.07
2019-04-11T10:37:42.274Z,41.45
2019-04-11T10:38:42.243Z,40.23
2019-04-11T10:39:42.227Z,39.90
2019-04-11T10:40:42.207Z,38.06
2019-04-11T10:41:42.195Z,36.65
2019-04-11T10:42:42.520Z,35.31
2019-04-11T10:43:42.563Z,38.26
2019-04-11T10:44:42.365Z,40.80
2019-04-11T10:45:42.733Z,38.97
2019-04-11T10:46:42.185Z,35.82
2019-04-11T10:47:42.162Z,43.14
2019-04-11T10:48:45.016Z,39.38
2019-04-11T10:49:42.166Z,41.02
2019-04-11T10:50:42.425Z,40.01
2019-04-11T10:51:42.344Z,38.68
2019-04-11T10:52:42.532Z,38.97
2019-04-11T10:53:42.075Z,37.05
2019-04-11T10:54:42.068Z,39.19
2019-04-11T10:55:42.063Z,41.02
2019-04-11T10:56:43.173Z,39.58
2019-04-11T10:57:42.384Z,36.65
2019-04-11T10:58:42.717Z,38.68
2019-04-11T10:59:42.941Z,36.75
2019-04-11T11:00:43.142Z,36.44
2019-04-11T11:01:42.309Z,36.36
2019-04-11T11:02:41.977Z,37.99
2019-04-11T11:03:43.005Z,35.73
2019-04-11T11:04:43.005Z,41.72
2019-04-11T11:05:42.912Z,36.93
2019-04-11T11:06:42.035Z,35.61
2019-04-11T11:07:42.503Z,35.10
2019-04-11T11:08:41.936Z,36.73
2019-04-11T11:09:42.190Z,45.06
2019-04-11T11:10:41.935Z,39.36
2019-04-11T11:11:41.873Z,37.93
2019-04-11T11:12:41.866Z,35.58
2019-04-11T11:13:42.440Z,35.90
2019-04-11T11:14:42.893Z,35.99
2019-04-11T11:15:41.980Z,37.00
2019-04-11T11:16:44.866Z,35.27
2019-04-11T11:18:00.974Z,37.41
2019-04-11T11:19:14.963Z,35.29
2019-04-11T11:19:55.235Z,33.26
2019-04-11T11:20:51.350Z,36.14
2019-04-11T11:21:43.029Z,36.32
2019-04-11T11:22:42.969Z,36.14
2019-04-11T11:23:42.830Z,36.66
2019-04-11T11:24:42.097Z,35.64
2019-04-11T11:25:42.269Z,36.87
2019-04-11T11:26:41.724Z,40.33
2019-04-11T11:27:41.721Z,38.97
2019-04-11T11:28:43.040Z,37.34
2019-04-11T11:29:42.957Z,34.92
2019-04-11T11:30:41.696Z,34.73
2019-04-11T11:31:42.745Z,36.25
2019-04-11T11:32:41.657Z,37.26
2019-04-11T11:33:42.671Z,36.55
2019-04-11T11:34:41.653Z,39.38
2019-04-11T11:35:42.808Z,34.90
2019-04-11T11:36:41.665Z,35.63
2019-04-11T11:37:41.725Z,37.97
2019-04-11T11:38:41.908Z,36.12
2019-04-11T11:39:41.600Z,39.99
2019-04-11T11:40:43.208Z,42.71
2019-04-11T11:41:42.526Z,41.27
2019-04-11T11:42:42.152Z,39.44
2019-04-11T11:43:41.537Z,40.36
2019-04-11T11:44:41.551Z,35.66
2019-04-11T11:45:41.662Z,33.65
2019-04-11T11:46:42.632Z,41.88
2019-04-11T11:47:41.997Z,36.19
2019-04-11T11:48:41.784Z,36.90
2019-04-11T11:49:51.706Z,36.39
2019-04-11T11:50:42.734Z,34.36
2019-04-11T11:52:57.439Z,36.60
2019-04-11T11:53:57.448Z,33.65
2019-04-11T11:54:57.168Z,36.08
2019-04-11T11:55:57.905Z,34.56
2019-04-11T11:56:58.130Z,31.51
2019-04-11T11:57:57.300Z,33.46
2019-04-11T11:58:58.577Z,33.46
2019-04-11T11:59:57.104Z,37.53
2019-04-11T12:00:58.679Z,43.41
2019-04-11T12:01:57.062Z,42.77
2019-04-11T12:02:57.053Z,41.86
2019-04-11T12:04:00.136Z,43.57
2019-04-11T12:04:57.058Z,37.56
2019-04-11T12:05:57.040Z,39.59
2019-04-11T12:07:01.829Z,38.37
2019-04-11T12:07:58.209Z,36.75
2019-04-11T12:08:58.138Z,36.76
2019-04-11T12:09:56.976Z,38.51
2019-04-11T12:10:57.571Z,35.97
2019-04-11T12:11:57.056Z,35.97
2019-04-11T12:12:56.951Z,35.26
2019-04-11T12:13:57.885Z,39.22
2019-04-11T12:14:56.923Z,38.61
2019-04-11T12:15:57.372Z,36.47
2019-04-11T12:17:01.341Z,38.00
2019-04-11T12:17:57.897Z,35.64
2019-04-11T12:18:56.879Z,41.54
2019-04-11T12:20:02.576Z,35.24
2019-04-11T12:20:59.198Z,46.72
2019-04-11T12:21:56.852Z,41.52
2019-04-11T12:22:57.018Z,35.42
2019-04-11T12:24:02.567Z,33.09
2019-04-11T12:24:58.674Z,33.09
2019-04-11T12:25:57.733Z,38.09
2019-04-11T12:26:57.070Z,38.17
2019-04-11T12:27:56.782Z,33.92
2019-04-11T12:28:57.591Z,36.97
2019-04-11T12:29:57.569Z,38.39
2019-04-11T12:31:00.592Z,32.71
2019-04-11T12:31:58.442Z,38.71
2019-04-11T12:32:57.089Z,40.93
2019-04-11T12:33:57.580Z,38.49
2019-04-11T12:34:57.728Z,36.87
2019-04-11T12:35:58.943Z,35.14
2019-04-11T12:36:56.938Z,35.22
2019-04-11T12:37:57.820Z,35.95
2019-04-11T12:38:56.665Z,38.59
2019-04-11T12:39:56.650Z,33.72
2019-04-11T12:40:56.651Z,32.50
2019-04-11T12:41:56.631Z,34.04
2019-04-11T12:42:56.639Z,38.71
2019-04-11T12:43:56.609Z,34.24
2019-04-11T12:44:59.333Z,37.70
2019-04-11T12:45:56.604Z,38.18
2019-04-11T12:46:56.577Z,37.17
2019-04-11T12:47:56.583Z,36.65
2019-04-11T12:48:56.551Z,37.66
2019-04-11T12:49:56.547Z,34.52
2019-04-11T12:50:56.543Z,33.01
2019-04-11T12:51:56.527Z,37.98
2019-04-11T12:52:56.544Z,31.90
2019-04-11T12:53:56.498Z,36.17
2019-04-11T12:54:56.491Z,43.99
2019-04-11T12:55:56.489Z,40.93